sensor_id;sensor_type;location;lat;lon;timestamp;pressure;altitude;pressure_sealevel;temperature
9985;BMP180;16737;50.932;6.780;2022-12-20T00:00:52;100255.00;;;15.60
9985;BMP180;16737;50.932;6.780;2022-12-20T00:03:19;100250.00;;;15.60
9985;BMP180;16737;50.932;6.780;2022-12-20T00:05:46;100230.00;;;15.60
9985;BMP180;16737;50.932;6.780;2022-12-20T00:08:14;100245.00;;;15.60
9985;BMP180;16737;50.932;6.780;2022-12-20T00:10:44;100240.00;;;15.60
9985;BMP180;16737;50.932;6.780;2022-12-20T00:13:12;100241.00;;;15.60
9985;BMP180;16737;50.932;6.780;2022-12-20T00:15:39;100206.00;;;15.60
9985;BMP180;16737;50.932;6.780;2022-12-20T00:18:09;100236.00;;;15.70
9985;BMP180;16737;50.932;6.780;2022-12-20T00:20:36;100240.00;;;15.70
9985;BMP180;16737;50.932;6.780;2022-12-20T00:23:03;100211.00;;;15.70
9985;BMP180;16737;50.932;6.780;2022-12-20T00:25:30;100203.00;;;15.70
9985;BMP180;16737;50.932;6.780;2022-12-20T00:27:59;100208.00;;;15.70
9985;BMP180;16737;50.932;6.780;2022-12-20T00:30:27;100203.00;;;15.70
9985;BMP180;16737;50.932;6.780;2022-12-20T00:32:54;100213.00;;;15.70
9985;BMP180;16737;50.932;6.780;2022-12-20T00:35:21;100204.00;;;15.70
9985;BMP180;16737;50.932;6.780;2022-12-20T00:37:48;100216.00;;;15.80
9985;BMP180;16737;50.932;6.780;2022-12-20T00:40:15;100210.00;;;15.80
9985;BMP180;16737;50.932;6.780;2022-12-20T00:42:42;100221.00;;;15.80
9985;BMP180;16737;50.932;6.780;2022-12-20T00:45:11;100227.00;;;15.80
9985;BMP180;16737;50.932;6.780;2022-12-20T00:47:38;100216.00;;;15.80
9985;BMP180;16737;50.932;6.780;2022-12-20T00:50:06;100228.00;;;15.80
9985;BMP180;16737;50.932;6.780;2022-12-20T00:52:33;100226.00;;;15.80
9985;BMP180;16737;50.932;6.780;2022-12-20T00:55:00;100245.00;;;15.80
9985;BMP180;16737;50.932;6.780;2022-12-20T00:57:27;100251.00;;;15.80
9985;BMP180;16737;50.932;6.780;2022-12-20T00:59:54;100242.00;;;15.80
9985;BMP180;16737;50.932;6.780;2022-12-20T01:02:23;100239.00;;;15.80
9985;BMP180;16737;50.932;6.780;2022-12-20T01:04:50;100247.00;;;15.80
9985;BMP180;16737;50.932;6.780;2022-12-20T01:07:19;100245.00;;;15.80
9985;BMP180;16737;50.932;6.780;2022-12-20T01:09:48;100245.00;;;15.80
9985;BMP180;16737;50.932;6.780;2022-12-20T01:12:15;100241.00;;;15.80
9985;BMP180;16737;50.932;6.780;2022-12-20T01:14:42;100241.00;;;15.80
9985;BMP180;16737;50.932;6.780;2022-12-20T01:17:09;100224.00;;;15.80
9985;BMP180;16737;50.932;6.780;2022-12-20T01:19:37;100220.00;;;15.90
9985;BMP180;16737;50.932;6.780;2022-12-20T01:22:04;100228.00;;;15.90
9985;BMP180;16737;50.932;6.780;2022-12-20T01:24:31;100212.00;;;15.90
9985;BMP180;16737;50.932;6.780;2022-12-20T01:26:58;100209.00;;;15.90
9985;BMP180;16737;50.932;6.780;2022-12-20T01:29:25;100218.00;;;15.90
9985;BMP180;16737;50.932;6.780;2022-12-20T01:31:52;100223.00;;;15.90
9985;BMP180;16737;50.932;6.780;2022-12-20T01:34:19;100226.00;;;15.90
9985;BMP180;16737;50.932;6.780;2022-12-20T01:36:47;100223.00;;;15.90
9985;BMP180;16737;50.932;6.780;2022-12-20T01:39:18;100216.00;;;15.90
9985;BMP180;16737;50.932;6.780;2022-12-20T01:41:46;100187.00;;;15.90
9985;BMP180;16737;50.932;6.780;2022-12-20T01:44:56;100210.00;;;15.90
9985;BMP180;16737;50.932;6.780;2022-12-20T01:47:25;100208.00;;;15.90
9985;BMP180;16737;50.932;6.780;2022-12-20T01:49:55;100212.00;;;15.90
9985;BMP180;16737;50.932;6.780;2022-12-20T01:52:31;100203.00;;;15.80
9985;BMP180;16737;50.932;6.780;2022-12-20T01:55:06;100217.00;;;15.80
9985;BMP180;16737;50.932;6.780;2022-12-20T01:57:41;100221.00;;;15.80
9985;BMP180;16737;50.932;6.780;2022-12-20T02:00:11;100209.00;;;15.80
9985;BMP180;16737;50.932;6.780;2022-12-20T02:02:39;100219.00;;;15.80
9985;BMP180;16737;50.932;6.780;2022-12-20T02:05:08;100220.00;;;15.80
9985;BMP180;16737;50.932;6.780;2022-12-20T02:07:37;100219.00;;;15.80
9985;BMP180;16737;50.932;6.780;2022-12-20T02:10:08;100208.00;;;15.80
9985;BMP180;16737;50.932;6.780;2022-12-20T02:12:40;100198.00;;;15.70
9985;BMP180;16737;50.932;6.780;2022-12-20T02:15:31;100198.00;;;15.70
9985;BMP180;16737;50.932;6.780;2022-12-20T02:18:17;100162.00;;;15.70
9985;BMP180;16737;50.932;6.780;2022-12-20T02:21:15;100186.00;;;15.60
9985;BMP180;16737;50.932;6.780;2022-12-20T02:24:21;100184.00;;;15.60
9985;BMP180;16737;50.932;6.780;2022-12-20T02:27:40;100166.00;;;15.50
9985;BMP180;16737;50.932;6.780;2022-12-20T02:30:13;100173.00;;;15.50
9985;BMP180;16737;50.932;6.780;2022-12-20T02:32:52;100179.00;;;15.50
9985;BMP180;16737;50.932;6.780;2022-12-20T02:35:24;100166.00;;;15.50
9985;BMP180;16737;50.932;6.780;2022-12-20T02:37:54;100177.00;;;15.40
9985;BMP180;16737;50.932;6.780;2022-12-20T02:40:25;100169.00;;;15.40
9985;BMP180;16737;50.932;6.780;2022-12-20T02:42:58;100164.00;;;15.40
9985;BMP180;16737;50.932;6.780;2022-12-20T02:45:32;100171.00;;;15.30
9985;BMP180;16737;50.932;6.780;2022-12-20T02:48:05;100147.00;;;15.30
9985;BMP180;16737;50.932;6.780;2022-12-20T02:50:37;100184.00;;;15.30
9985;BMP180;16737;50.932;6.780;2022-12-20T02:53:06;100178.00;;;15.30
9985;BMP180;16737;50.932;6.780;2022-12-20T02:55:42;100174.00;;;15.20
9985;BMP180;16737;50.932;6.780;2022-12-20T02:58:22;100174.00;;;15.20
9985;BMP180;16737;50.932;6.780;2022-12-20T03:00:55;100182.00;;;15.20
9985;BMP180;16737;50.932;6.780;2022-12-20T03:03:23;100171.00;;;15.20
9985;BMP180;16737;50.932;6.780;2022-12-20T03:05:54;100163.00;;;15.20
9985;BMP180;16737;50.932;6.780;2022-12-20T03:08:22;100158.00;;;15.10
9985;BMP180;16737;50.932;6.780;2022-12-20T03:10:52;100156.00;;;15.10
9985;BMP180;16737;50.932;6.780;2022-12-20T03:13:21;100171.00;;;15.10
9985;BMP180;16737;50.932;6.780;2022-12-20T03:15:48;100154.00;;;15.00
9985;BMP180;16737;50.932;6.780;2022-12-20T03:18:17;100156.00;;;15.10
9985;BMP180;16737;50.932;6.780;2022-12-20T03:20:44;100159.00;;;15.10
9985;BMP180;16737;50.932;6.780;2022-12-20T03:23:11;100171.00;;;15.10
9985;BMP180;16737;50.932;6.780;2022-12-20T03:25:38;100167.00;;;15.10
9985;BMP180;16737;50.932;6.780;2022-12-20T03:28:05;100139.00;;;15.10
9985;BMP180;16737;50.932;6.780;2022-12-20T03:30:32;100160.00;;;15.10
9985;BMP180;16737;50.932;6.780;2022-12-20T03:32:59;100155.00;;;15.20
9985;BMP180;16737;50.932;6.780;2022-12-20T03:35:27;100154.00;;;15.20
9985;BMP180;16737;50.932;6.780;2022-12-20T03:37:54;100161.00;;;15.10
9985;BMP180;16737;50.932;6.780;2022-12-20T03:40:22;100160.00;;;15.20
9985;BMP180;16737;50.932;6.780;2022-12-20T03:42:48;100167.00;;;15.20
9985;BMP180;16737;50.932;6.780;2022-12-20T03:45:16;100172.00;;;15.20
9985;BMP180;16737;50.932;6.780;2022-12-20T03:47:43;100174.00;;;15.20
9985;BMP180;16737;50.932;6.780;2022-12-20T03:50:10;100183.00;;;15.20
9985;BMP180;16737;50.932;6.780;2022-12-20T03:52:39;100191.00;;;15.30
9985;BMP180;16737;50.932;6.780;2022-12-20T03:55:07;100182.00;;;15.30
9985;BMP180;16737;50.932;6.780;2022-12-20T03:57:34;100184.00;;;15.30
9985;BMP180;16737;50.932;6.780;2022-12-20T04:00:02;100181.00;;;15.20
9985;BMP180;16737;50.932;6.780;2022-12-20T04:02:29;100184.00;;;15.20
9985;BMP180;16737;50.932;6.780;2022-12-20T04:04:56;100179.00;;;15.20
9985;BMP180;16737;50.932;6.780;2022-12-20T04:07:23;100181.00;;;15.20
9985;BMP180;16737;50.932;6.780;2022-12-20T04:09:51;100169.00;;;15.20
9985;BMP180;16737;50.932;6.780;2022-12-20T04:12:18;100169.00;;;15.10
9985;BMP180;16737;50.932;6.780;2022-12-20T04:14:45;100184.00;;;15.10
9985;BMP180;16737;50.932;6.780;2022-12-20T04:17:12;100179.00;;;15.10
9985;BMP180;16737;50.932;6.780;2022-12-20T04:19:39;100175.00;;;15.00
9985;BMP180;16737;50.932;6.780;2022-12-20T04:22:06;100162.00;;;15.00
9985;BMP180;16737;50.932;6.780;2022-12-20T04:24:33;100168.00;;;15.00
9985;BMP180;16737;50.932;6.780;2022-12-20T04:27:01;100162.00;;;14.90
9985;BMP180;16737;50.932;6.780;2022-12-20T04:29:28;100159.00;;;14.90
9985;BMP180;16737;50.932;6.780;2022-12-20T04:31:55;100149.00;;;14.90
9985;BMP180;16737;50.932;6.780;2022-12-20T04:34:22;100154.00;;;14.90
9985;BMP180;16737;50.932;6.780;2022-12-20T04:36:49;100155.00;;;14.90
9985;BMP180;16737;50.932;6.780;2022-12-20T04:39:16;100154.00;;;14.90
9985;BMP180;16737;50.932;6.780;2022-12-20T04:41:43;100161.00;;;14.80
9985;BMP180;16737;50.932;6.780;2022-12-20T04:44:11;100151.00;;;14.80
9985;BMP180;16737;50.932;6.780;2022-12-20T04:46:38;100151.00;;;14.80
9985;BMP180;16737;50.932;6.780;2022-12-20T04:49:05;100137.00;;;14.80
9985;BMP180;16737;50.932;6.780;2022-12-20T04:51:32;100137.00;;;14.80
9985;BMP180;16737;50.932;6.780;2022-12-20T04:53:59;100131.00;;;14.70
9985;BMP180;16737;50.932;6.780;2022-12-20T04:56:27;100131.00;;;14.70
9985;BMP180;16737;50.932;6.780;2022-12-20T04:58:57;100130.00;;;14.70
9985;BMP180;16737;50.932;6.780;2022-12-20T05:01:25;100132.00;;;14.70
9985;BMP180;16737;50.932;6.780;2022-12-20T05:03:53;100132.00;;;14.60
9985;BMP180;16737;50.932;6.780;2022-12-20T05:06:21;100132.00;;;14.70
9985;BMP180;16737;50.932;6.780;2022-12-20T05:08:48;100127.00;;;14.60
9985;BMP180;16737;50.932;6.780;2022-12-20T05:11:15;100127.00;;;14.60
9985;BMP180;16737;50.932;6.780;2022-12-20T05:13:42;100116.00;;;14.50
9985;BMP180;16737;50.932;6.780;2022-12-20T05:16:09;100107.00;;;14.50
9985;BMP180;16737;50.932;6.780;2022-12-20T05:18:37;100118.00;;;14.40
9985;BMP180;16737;50.932;6.780;2022-12-20T05:21:05;100121.00;;;14.40
9985;BMP180;16737;50.932;6.780;2022-12-20T05:23:49;100100.00;;;14.40
9985;BMP180;16737;50.932;6.780;2022-12-20T05:26:36;100107.00;;;14.40
9985;BMP180;16737;50.932;6.780;2022-12-20T05:29:04;100103.00;;;14.40
9985;BMP180;16737;50.932;6.780;2022-12-20T05:31:32;100096.00;;;14.40
9985;BMP180;16737;50.932;6.780;2022-12-20T05:34:00;100101.00;;;14.40
9985;BMP180;16737;50.932;6.780;2022-12-20T05:36:28;100086.00;;;14.40
9985;BMP180;16737;50.932;6.780;2022-12-20T05:38:55;100102.00;;;14.40
9985;BMP180;16737;50.932;6.780;2022-12-20T05:41:22;100106.00;;;14.30
9985;BMP180;16737;50.932;6.780;2022-12-20T05:43:48;100106.00;;;14.30
9985;BMP180;16737;50.932;6.780;2022-12-20T05:46:15;100067.00;;;14.30
9985;BMP180;16737;50.932;6.780;2022-12-20T05:48:42;100087.00;;;14.30
9985;BMP180;16737;50.932;6.780;2022-12-20T05:51:11;100080.00;;;14.30
9985;BMP180;16737;50.932;6.780;2022-12-20T05:53:38;100085.00;;;14.40
9985;BMP180;16737;50.932;6.780;2022-12-20T05:56:05;100085.00;;;14.40
9985;BMP180;16737;50.932;6.780;2022-12-20T05:58:33;100083.00;;;14.40
9985;BMP180;16737;50.932;6.780;2022-12-20T06:01:00;100080.00;;;14.40
9985;BMP180;16737;50.932;6.780;2022-12-20T06:03:28;100070.00;;;14.50
9985;BMP180;16737;50.932;6.780;2022-12-20T06:05:55;100069.00;;;14.50
9985;BMP180;16737;50.932;6.780;2022-12-20T06:08:24;100073.00;;;14.50
9985;BMP180;16737;50.932;6.780;2022-12-20T06:10:51;100068.00;;;14.50
9985;BMP180;16737;50.932;6.780;2022-12-20T06:13:18;100061.00;;;14.50
9985;BMP180;16737;50.932;6.780;2022-12-20T06:15:45;100073.00;;;14.50
9985;BMP180;16737;50.932;6.780;2022-12-20T06:18:13;100081.00;;;14.50
9985;BMP180;16737;50.932;6.780;2022-12-20T06:20:40;100087.00;;;14.50
9985;BMP180;16737;50.932;6.780;2022-12-20T06:23:07;100078.00;;;14.50
9985;BMP180;16737;50.932;6.780;2022-12-20T06:25:36;100066.00;;;14.50
9985;BMP180;16737;50.932;6.780;2022-12-20T06:28:04;100076.00;;;14.60
9985;BMP180;16737;50.932;6.780;2022-12-20T06:30:32;100085.00;;;14.60
9985;BMP180;16737;50.932;6.780;2022-12-20T06:33:00;100081.00;;;14.60
9985;BMP180;16737;50.932;6.780;2022-12-20T06:35:27;100074.00;;;14.60
9985;BMP180;16737;50.932;6.780;2022-12-20T06:37:54;100073.00;;;14.60
9985;BMP180;16737;50.932;6.780;2022-12-20T06:40:22;100054.00;;;14.70
9985;BMP180;16737;50.932;6.780;2022-12-20T06:42:50;100077.00;;;14.70
9985;BMP180;16737;50.932;6.780;2022-12-20T06:45:17;100062.00;;;14.70
9985;BMP180;16737;50.932;6.780;2022-12-20T06:47:44;100068.00;;;14.70
9985;BMP180;16737;50.932;6.780;2022-12-20T06:50:11;100053.00;;;14.70
9985;BMP180;16737;50.932;6.780;2022-12-20T06:52:38;100049.00;;;14.70
9985;BMP180;16737;50.932;6.780;2022-12-20T06:55:06;100046.00;;;14.70
9985;BMP180;16737;50.932;6.780;2022-12-20T06:57:33;100053.00;;;14.70
9985;BMP180;16737;50.932;6.780;2022-12-20T07:00:01;100047.00;;;14.60
9985;BMP180;16737;50.932;6.780;2022-12-20T07:02:29;100050.00;;;14.70
9985;BMP180;16737;50.932;6.780;2022-12-20T07:04:55;100046.00;;;14.70
9985;BMP180;16737;50.932;6.780;2022-12-20T07:07:22;100046.00;;;14.60
9985;BMP180;16737;50.932;6.780;2022-12-20T07:09:49;100046.00;;;14.60
9985;BMP180;16737;50.932;6.780;2022-12-20T07:16:00;100039.00;;;14.60
9985;BMP180;16737;50.932;6.780;2022-12-20T07:18:27;100025.00;;;14.60
9985;BMP180;16737;50.932;6.780;2022-12-20T07:20:59;100031.00;;;14.60
9985;BMP180;16737;50.932;6.780;2022-12-20T07:23:26;100023.00;;;14.70
9985;BMP180;16737;50.932;6.780;2022-12-20T07:25:53;100017.00;;;14.70
9985;BMP180;16737;50.932;6.780;2022-12-20T07:28:21;100010.00;;;14.70
9985;BMP180;16737;50.932;6.780;2022-12-20T07:30:49;100015.00;;;14.70
9985;BMP180;16737;50.932;6.780;2022-12-20T07:33:17;100014.00;;;14.60
9985;BMP180;16737;50.932;6.780;2022-12-20T07:35:44;100020.00;;;14.50
9985;BMP180;16737;50.932;6.780;2022-12-20T07:38:12;100018.00;;;14.50
9985;BMP180;16737;50.932;6.780;2022-12-20T07:40:40;100025.00;;;14.40
9985;BMP180;16737;50.932;6.780;2022-12-20T07:43:08;100024.00;;;14.30
9985;BMP180;16737;50.932;6.780;2022-12-20T07:45:35;100034.00;;;14.30
9985;BMP180;16737;50.932;6.780;2022-12-20T07:48:03;100037.00;;;14.30
9985;BMP180;16737;50.932;6.780;2022-12-20T07:50:33;100010.00;;;14.20
9985;BMP180;16737;50.932;6.780;2022-12-20T07:53:04;100024.00;;;14.20
9985;BMP180;16737;50.932;6.780;2022-12-20T07:55:32;100022.00;;;14.20
9985;BMP180;16737;50.932;6.780;2022-12-20T07:58:03;100010.00;;;14.20
9985;BMP180;16737;50.932;6.780;2022-12-20T08:00:32;100025.00;;;14.30
9985;BMP180;16737;50.932;6.780;2022-12-20T08:03:04;100024.00;;;14.30
9985;BMP180;16737;50.932;6.780;2022-12-20T08:05:36;100027.00;;;14.30
9985;BMP180;16737;50.932;6.780;2022-12-20T08:08:06;100026.00;;;14.40
9985;BMP180;16737;50.932;6.780;2022-12-20T08:10:33;100018.00;;;14.40
9985;BMP180;16737;50.932;6.780;2022-12-20T08:13:01;100025.00;;;14.50
9985;BMP180;16737;50.932;6.780;2022-12-20T08:15:29;100027.00;;;14.60
9985;BMP180;16737;50.932;6.780;2022-12-20T08:17:56;100012.00;;;14.60
9985;BMP180;16737;50.932;6.780;2022-12-20T08:20:23;100013.00;;;14.70
9985;BMP180;16737;50.932;6.780;2022-12-20T08:22:52;100010.00;;;14.70
9985;BMP180;16737;50.932;6.780;2022-12-20T08:25:19;100025.00;;;14.80
9985;BMP180;16737;50.932;6.780;2022-12-20T08:27:47;100010.00;;;14.80
9985;BMP180;16737;50.932;6.780;2022-12-20T08:30:14;100005.00;;;14.90
9985;BMP180;16737;50.932;6.780;2022-12-20T08:32:42;100010.00;;;14.90
9985;BMP180;16737;50.932;6.780;2022-12-20T08:35:09;100022.00;;;15.00
9985;BMP180;16737;50.932;6.780;2022-12-20T08:37:37;100004.00;;;15.00
9985;BMP180;16737;50.932;6.780;2022-12-20T08:40:07;100019.00;;;15.00
9985;BMP180;16737;50.932;6.780;2022-12-20T08:42:35;100020.00;;;15.00
9985;BMP180;16737;50.932;6.780;2022-12-20T08:45:02;100018.00;;;15.10
9985;BMP180;16737;50.932;6.780;2022-12-20T08:47:29;100019.00;;;15.10
9985;BMP180;16737;50.932;6.780;2022-12-20T08:49:56;100020.00;;;15.10
9985;BMP180;16737;50.932;6.780;2022-12-20T08:52:23;100025.00;;;15.10
9985;BMP180;16737;50.932;6.780;2022-12-20T08:54:50;100023.00;;;15.20
9985;BMP180;16737;50.932;6.780;2022-12-20T08:57:18;100017.00;;;15.20
9985;BMP180;16737;50.932;6.780;2022-12-20T08:59:45;100025.00;;;15.20
9985;BMP180;16737;50.932;6.780;2022-12-20T09:02:13;100017.00;;;15.20
9985;BMP180;16737;50.932;6.780;2022-12-20T09:04:40;100016.00;;;15.20
9985;BMP180;16737;50.932;6.780;2022-12-20T09:07:06;100023.00;;;15.30
9985;BMP180;16737;50.932;6.780;2022-12-20T09:09:33;100010.00;;;15.30
9985;BMP180;16737;50.932;6.780;2022-12-20T09:12:00;100013.00;;;15.30
9985;BMP180;16737;50.932;6.780;2022-12-20T09:14:29;100020.00;;;15.30
9985;BMP180;16737;50.932;6.780;2022-12-20T09:16:55;100032.00;;;15.40
9985;BMP180;16737;50.932;6.780;2022-12-20T09:19:22;100031.00;;;15.40
9985;BMP180;16737;50.932;6.780;2022-12-20T09:21:49;100026.00;;;15.40
9985;BMP180;16737;50.932;6.780;2022-12-20T09:24:16;100023.00;;;15.40
9985;BMP180;16737;50.932;6.780;2022-12-20T09:26:43;100009.00;;;15.40
9985;BMP180;16737;50.932;6.780;2022-12-20T09:29:10;100010.00;;;15.50
9985;BMP180;16737;50.932;6.780;2022-12-20T09:31:38;100005.00;;;15.50
9985;BMP180;16737;50.932;6.780;2022-12-20T09:34:05;100001.00;;;15.50
9985;BMP180;16737;50.932;6.780;2022-12-20T09:36:32;100009.00;;;15.50
9985;BMP180;16737;50.932;6.780;2022-12-20T09:38:59;99992.00;;;15.60
9985;BMP180;16737;50.932;6.780;2022-12-20T09:41:33;100000.00;;;15.60
9985;BMP180;16737;50.932;6.780;2022-12-20T09:44:11;100006.00;;;15.60
9985;BMP180;16737;50.932;6.780;2022-12-20T09:46:42;100010.00;;;15.60
9985;BMP180;16737;50.932;6.780;2022-12-20T09:49:14;100010.00;;;15.60
9985;BMP180;16737;50.932;6.780;2022-12-20T09:52:08;99997.00;;;15.60
9985;BMP180;16737;50.932;6.780;2022-12-20T09:59:20;100006.00;;;15.60
9985;BMP180;16737;50.932;6.780;2022-12-20T10:01:49;99993.00;;;15.60
9985;BMP180;16737;50.932;6.780;2022-12-20T10:04:21;99979.00;;;15.60
9985;BMP180;16737;50.932;6.780;2022-12-20T10:07:09;99989.00;;;15.60
9985;BMP180;16737;50.932;6.780;2022-12-20T10:10:00;99984.00;;;15.50
9985;BMP180;16737;50.932;6.780;2022-12-20T10:12:38;99987.00;;;15.60
9985;BMP180;16737;50.932;6.780;2022-12-20T10:15:19;99981.00;;;15.50
9985;BMP180;16737;50.932;6.780;2022-12-20T10:18:12;99989.00;;;15.50
9985;BMP180;16737;50.932;6.780;2022-12-20T10:20:57;99989.00;;;15.50
9985;BMP180;16737;50.932;6.780;2022-12-20T10:23:35;99984.00;;;15.60
9985;BMP180;16737;50.932;6.780;2022-12-20T10:26:09;99971.00;;;15.60
9985;BMP180;16737;50.932;6.780;2022-12-20T10:28:37;99995.00;;;15.60
9985;BMP180;16737;50.932;6.780;2022-12-20T10:31:11;99976.00;;;15.60
9985;BMP180;16737;50.932;6.780;2022-12-20T10:33:40;99970.00;;;15.70
9985;BMP180;16737;50.932;6.780;2022-12-20T10:36:27;99951.00;;;15.70
9985;BMP180;16737;50.932;6.780;2022-12-20T10:38:57;99969.00;;;15.80
9985;BMP180;16737;50.932;6.780;2022-12-20T10:45:59;99965.00;;;15.80
9985;BMP180;16737;50.932;6.780;2022-12-20T10:48:30;99968.00;;;15.80
9985;BMP180;16737;50.932;6.780;2022-12-20T10:51:02;99957.00;;;15.80
9985;BMP180;16737;50.932;6.780;2022-12-20T10:53:30;99952.00;;;15.90
9985;BMP180;16737;50.932;6.780;2022-12-20T10:56:17;99949.00;;;15.80
9985;BMP180;16737;50.932;6.780;2022-12-20T10:58:53;99948.00;;;15.90
9985;BMP180;16737;50.932;6.780;2022-12-20T11:01:24;99942.00;;;15.90
9985;BMP180;16737;50.932;6.780;2022-12-20T11:03:56;99940.00;;;15.90
9985;BMP180;16737;50.932;6.780;2022-12-20T11:06:38;99943.00;;;16.00
9985;BMP180;16737;50.932;6.780;2022-12-20T11:09:29;99945.00;;;16.00
9985;BMP180;16737;50.932;6.780;2022-12-20T11:12:03;99933.00;;;16.00
9985;BMP180;16737;50.932;6.780;2022-12-20T11:14:33;99940.00;;;16.10
9985;BMP180;16737;50.932;6.780;2022-12-20T11:17:13;99928.00;;;16.10
9985;BMP180;16737;50.932;6.780;2022-12-20T11:20:05;99933.00;;;16.10
9985;BMP180;16737;50.932;6.780;2022-12-20T11:22:50;99925.00;;;16.20
9985;BMP180;16737;50.932;6.780;2022-12-20T11:25:47;99909.00;;;16.20
9985;BMP180;16737;50.932;6.780;2022-12-20T11:28:38;99920.00;;;16.20
9985;BMP180;16737;50.932;6.780;2022-12-20T11:31:15;99914.00;;;16.20
9985;BMP180;16737;50.932;6.780;2022-12-20T11:34:02;99916.00;;;16.20
9985;BMP180;16737;50.932;6.780;2022-12-20T11:36:58;99902.00;;;16.20
9985;BMP180;16737;50.932;6.780;2022-12-20T11:39:39;99915.00;;;16.30
9985;BMP180;16737;50.932;6.780;2022-12-20T11:42:17;99898.00;;;16.40
9985;BMP180;16737;50.932;6.780;2022-12-20T11:44:57;99903.00;;;16.40
9985;BMP180;16737;50.932;6.780;2022-12-20T11:48:11;99908.00;;;16.40
9985;BMP180;16737;50.932;6.780;2022-12-20T11:50:56;99905.00;;;16.40
9985;BMP180;16737;50.932;6.780;2022-12-20T11:53:31;99898.00;;;16.40
9985;BMP180;16737;50.932;6.780;2022-12-20T11:56:08;99908.00;;;16.40
9985;BMP180;16737;50.932;6.780;2022-12-20T11:58:48;99901.00;;;16.50
9985;BMP180;16737;50.932;6.780;2022-12-20T12:01:20;99879.00;;;16.50
9985;BMP180;16737;50.932;6.780;2022-12-20T12:04:00;99899.00;;;16.50
9985;BMP180;16737;50.932;6.780;2022-12-20T12:06:33;99898.00;;;16.60
9985;BMP180;16737;50.932;6.780;2022-12-20T12:09:14;99891.00;;;16.50
9985;BMP180;16737;50.932;6.780;2022-12-20T12:11:49;99887.00;;;16.60
9985;BMP180;16737;50.932;6.780;2022-12-20T12:14:43;99890.00;;;16.60
9985;BMP180;16737;50.932;6.780;2022-12-20T12:17:23;99883.00;;;16.60
9985;BMP180;16737;50.932;6.780;2022-12-20T12:19:55;99891.00;;;16.70
9985;BMP180;16737;50.932;6.780;2022-12-20T12:22:32;99906.00;;;16.70
9985;BMP180;16737;50.932;6.780;2022-12-20T12:25:09;99881.00;;;16.70
9985;BMP180;16737;50.932;6.780;2022-12-20T12:27:38;99875.00;;;16.70
9985;BMP180;16737;50.932;6.780;2022-12-20T12:32:43;99878.00;;;16.70
9985;BMP180;16737;50.932;6.780;2022-12-20T12:35:44;99879.00;;;16.70
9985;BMP180;16737;50.932;6.780;2022-12-20T12:38:35;99872.00;;;16.70
9985;BMP180;16737;50.932;6.780;2022-12-20T12:41:51;99853.00;;;16.60
9985;BMP180;16737;50.932;6.780;2022-12-20T12:44:40;99865.00;;;16.60
9985;BMP180;16737;50.932;6.780;2022-12-20T12:47:16;99860.00;;;16.60
9985;BMP180;16737;50.932;6.780;2022-12-20T12:49:49;99856.00;;;16.60
9985;BMP180;16737;50.932;6.780;2022-12-20T12:52:42;99867.00;;;16.60
9985;BMP180;16737;50.932;6.780;2022-12-20T12:55:41;99864.00;;;16.50
9985;BMP180;16737;50.932;6.780;2022-12-20T12:58:33;99872.00;;;16.40
9985;BMP180;16737;50.932;6.780;2022-12-20T13:01:05;99865.00;;;16.40
9985;BMP180;16737;50.932;6.780;2022-12-20T13:04:21;99851.00;;;16.30
9985;BMP180;16737;50.932;6.780;2022-12-20T13:07:02;99849.00;;;16.20
9985;BMP180;16737;50.932;6.780;2022-12-20T13:09:39;99857.00;;;16.20
9985;BMP180;16737;50.932;6.780;2022-12-20T13:12:55;99853.00;;;16.10
9985;BMP180;16737;50.932;6.780;2022-12-20T13:15:46;99862.00;;;16.00
9985;BMP180;16737;50.932;6.780;2022-12-20T13:18:23;99849.00;;;16.00
9985;BMP180;16737;50.932;6.780;2022-12-20T13:21:30;99840.00;;;15.90
9985;BMP180;16737;50.932;6.780;2022-12-20T13:24:38;99834.00;;;15.80
9985;BMP180;16737;50.932;6.780;2022-12-20T13:27:26;99834.00;;;15.80
9985;BMP180;16737;50.932;6.780;2022-12-20T13:30:26;99825.00;;;15.80
9985;BMP180;16737;50.932;6.780;2022-12-20T13:33:22;99838.00;;;15.70
9985;BMP180;16737;50.932;6.780;2022-12-20T13:36:34;99846.00;;;15.70
9985;BMP180;16737;50.932;6.780;2022-12-20T13:39:29;99840.00;;;15.70
9985;BMP180;16737;50.932;6.780;2022-12-20T13:42:19;99838.00;;;15.60
9985;BMP180;16737;50.932;6.780;2022-12-20T13:44:51;99834.00;;;15.60
9985;BMP180;16737;50.932;6.780;2022-12-20T13:47:33;99823.00;;;15.60
9985;BMP180;16737;50.932;6.780;2022-12-20T13:50:25;99829.00;;;15.50
9985;BMP180;16737;50.932;6.780;2022-12-20T13:52:53;99828.00;;;15.60
9985;BMP180;16737;50.932;6.780;2022-12-20T13:55:30;99824.00;;;15.60
9985;BMP180;16737;50.932;6.780;2022-12-20T13:58:14;99827.00;;;15.60
9985;BMP180;16737;50.932;6.780;2022-12-20T14:00:43;99824.00;;;15.70
9985;BMP180;16737;50.932;6.780;2022-12-20T14:03:25;99818.00;;;15.60
9985;BMP180;16737;50.932;6.780;2022-12-20T14:06:00;99832.00;;;15.60
9985;BMP180;16737;50.932;6.780;2022-12-20T14:08:32;99824.00;;;15.70
9985;BMP180;16737;50.932;6.780;2022-12-20T14:11:11;99832.00;;;15.60
9985;BMP180;16737;50.932;6.780;2022-12-20T14:13:40;99832.00;;;15.70
9985;BMP180;16737;50.932;6.780;2022-12-20T14:16:14;99826.00;;;15.70
9985;BMP180;16737;50.932;6.780;2022-12-20T14:18:45;99831.00;;;15.70
9985;BMP180;16737;50.932;6.780;2022-12-20T14:21:15;99826.00;;;15.70
9985;BMP180;16737;50.932;6.780;2022-12-20T14:23:46;99827.00;;;15.70
9985;BMP180;16737;50.932;6.780;2022-12-20T14:26:17;99812.00;;;15.70
9985;BMP180;16737;50.932;6.780;2022-12-20T14:28:48;99810.00;;;15.60
9985;BMP180;16737;50.932;6.780;2022-12-20T14:31:25;99817.00;;;15.70
9985;BMP180;16737;50.932;6.780;2022-12-20T14:34:02;99791.00;;;15.70
9985;BMP180;16737;50.932;6.780;2022-12-20T14:36:31;99812.00;;;15.70
9985;BMP180;16737;50.932;6.780;2022-12-20T14:38:59;99822.00;;;15.70
9985;BMP180;16737;50.932;6.780;2022-12-20T14:41:34;99811.00;;;15.70
9985;BMP180;16737;50.932;6.780;2022-12-20T14:44:15;99823.00;;;15.70
9985;BMP180;16737;50.932;6.780;2022-12-20T14:46:48;99818.00;;;15.70
9985;BMP180;16737;50.932;6.780;2022-12-20T14:49:26;99811.00;;;15.70
9985;BMP180;16737;50.932;6.780;2022-12-20T14:52:12;99819.00;;;15.70
9985;BMP180;16737;50.932;6.780;2022-12-20T14:54:45;99802.00;;;15.70
9985;BMP180;16737;50.932;6.780;2022-12-20T14:57:22;99801.00;;;15.70
9985;BMP180;16737;50.932;6.780;2022-12-20T15:00:01;99798.00;;;15.70
9985;BMP180;16737;50.932;6.780;2022-12-20T15:02:40;99792.00;;;15.70